sensor_id;sensor_type;location;lat;lon;timestamp;P1;durP1;ratioP1;P2;durP2;ratioP2
35442;SDS011;21561;55.654;37.592;2023-11-18T00:00:00;8.80;;;2.00;;
35442;SDS011;21561;55.654;37.592;2023-11-18T00:02:31;8.35;;;2.00;;
35442;SDS011;21561;55.654;37.592;2023-11-18T00:05:00;12.63;;;2.20;;
35442;SDS011;21561;55.654;37.592;2023-11-18T00:07:30;10.00;;;2.03;;
35442;SDS011;21561;55.654;37.592;2023-11-18T00:09:59;11.32;;;2.15;;
35442;SDS011;21561;55.654;37.592;2023-11-18T00:12:27;7.20;;;1.83;;
35442;SDS011;21561;55.654;37.592;2023-11-18T00:14:54;9.23;;;2.10;;
35442;SDS011;21561;55.654;37.592;2023-11-18T00:17:21;12.50;;;2.17;;
35442;SDS011;21561;55.654;37.592;2023-11-18T00:19:48;14.15;;;3.97;;
35442;SDS011;21561;55.654;37.592;2023-11-18T00:22:16;10.45;;;2.13;;
35442;SDS011;21561;55.654;37.592;2023-11-18T00:24:43;11.43;;;2.00;;
35442;SDS011;21561;55.654;37.592;2023-11-18T00:27:10;7.72;;;2.25;;
35442;SDS011;21561;55.654;37.592;2023-11-18T00:29:37;9.73;;;1.95;;
35442;SDS011;21561;55.654;37.592;2023-11-18T00:32:04;7.90;;;2.20;;
35442;SDS011;21561;55.654;37.592;2023-11-18T00:34:35;7.03;;;2.08;;
35442;SDS011;21561;55.654;37.592;2023-11-18T00:37:02;7.65;;;1.73;;
35442;SDS011;21561;55.654;37.592;2023-11-18T00:39:30;8.82;;;1.80;;
35442;SDS011;21561;55.654;37.592;2023-11-18T00:41:57;8.73;;;2.35;;
35442;SDS011;21561;55.654;37.592;2023-11-18T00:44:24;7.07;;;1.73;;
35442;SDS011;21561;55.654;37.592;2023-11-18T00:46:51;8.75;;;2.15;;
35442;SDS011;21561;55.654;37.592;2023-11-18T00:49:18;9.18;;;2.50;;
35442;SDS011;21561;55.654;37.592;2023-11-18T00:51:46;6.85;;;1.92;;
35442;SDS011;21561;55.654;37.592;2023-11-18T00:54:12;12.00;;;2.35;;
35442;SDS011;21561;55.654;37.592;2023-11-18T00:56:39;12.25;;;2.50;;
35442;SDS011;21561;55.654;37.592;2023-11-18T00:59:07;13.95;;;2.85;;
35442;SDS011;21561;55.654;37.592;2023-11-18T01:01:34;12.25;;;2.55;;
35442;SDS011;21561;55.654;37.592;2023-11-18T01:04:01;11.80;;;2.60;;
35442;SDS011;21561;55.654;37.592;2023-11-18T01:06:29;13.38;;;2.45;;
35442;SDS011;21561;55.654;37.592;2023-11-18T01:08:55;12.80;;;2.53;;
35442;SDS011;21561;55.654;37.592;2023-11-18T01:11:22;8.88;;;2.20;;
35442;SDS011;21561;55.654;37.592;2023-11-18T01:13:50;11.68;;;3.08;;
35442;SDS011;21561;55.654;37.592;2023-11-18T01:16:17;13.77;;;2.55;;
35442;SDS011;21561;55.654;37.592;2023-11-18T01:18:44;15.93;;;2.92;;
35442;SDS011;21561;55.654;37.592;2023-11-18T01:21:12;11.93;;;2.92;;
35442;SDS011;21561;55.654;37.592;2023-11-18T01:23:39;10.80;;;2.38;;
35442;SDS011;21561;55.654;37.592;2023-11-18T01:26:11;12.18;;;2.60;;
35442;SDS011;21561;55.654;37.592;2023-11-18T01:28:39;14.32;;;3.00;;
35442;SDS011;21561;55.654;37.592;2023-11-18T01:31:09;12.70;;;2.75;;
35442;SDS011;21561;55.654;37.592;2023-11-18T01:33:40;11.43;;;2.70;;
35442;SDS011;21561;55.654;37.592;2023-11-18T01:36:08;12.15;;;2.90;;
35442;SDS011;21561;55.654;37.592;2023-11-18T01:38:35;14.05;;;2.67;;
35442;SDS011;21561;55.654;37.592;2023-11-18T01:41:06;11.93;;;2.47;;
35442;SDS011;21561;55.654;37.592;2023-11-18T01:43:34;14.88;;;2.80;;
35442;SDS011;21561;55.654;37.592;2023-11-18T01:46:05;15.20;;;3.55;;
35442;SDS011;21561;55.654;37.592;2023-11-18T01:48:37;9.98;;;2.65;;
35442;SDS011;21561;55.654;37.592;2023-11-18T01:51:06;10.65;;;2.72;;
35442;SDS011;21561;55.654;37.592;2023-11-18T01:53:36;12.27;;;2.75;;
35442;SDS011;21561;55.654;37.592;2023-11-18T01:56:04;15.25;;;3.30;;
35442;SDS011;21561;55.654;37.592;2023-11-18T01:58:33;12.80;;;3.05;;
35442;SDS011;21561;55.654;37.592;2023-11-18T02:01:02;9.77;;;3.03;;
35442;SDS011;21561;55.654;37.592;2023-11-18T02:03:35;12.10;;;3.13;;
35442;SDS011;21561;55.654;37.592;2023-11-18T02:06:03;15.27;;;3.55;;
35442;SDS011;21561;55.654;37.592;2023-11-18T02:08:35;11.43;;;3.10;;
35442;SDS011;21561;55.654;37.592;2023-11-18T02:11:05;14.35;;;3.40;;
35442;SDS011;21561;55.654;37.592;2023-11-18T02:14:11;12.70;;;3.38;;
35442;SDS011;21561;55.654;37.592;2023-11-18T02:16:43;14.32;;;3.00;;
35442;SDS011;21561;55.654;37.592;2023-11-18T02:19:20;12.20;;;3.33;;
35442;SDS011;21561;55.654;37.592;2023-11-18T02:21:52;15.82;;;3.22;;
35442;SDS011;21561;55.654;37.592;2023-11-18T02:24:31;17.58;;;3.60;;
35442;SDS011;21561;55.654;37.592;2023-11-18T02:27:03;11.35;;;3.47;;
35442;SDS011;21561;55.654;37.592;2023-11-18T02:32:06;15.23;;;3.30;;
35442;SDS011;21561;55.654;37.592;2023-11-18T02:37:41;17.98;;;3.55;;
35442;SDS011;21561;55.654;37.592;2023-11-18T02:40:12;13.10;;;3.50;;
35442;SDS011;21561;55.654;37.592;2023-11-18T02:42:55;10.70;;;2.95;;
35442;SDS011;21561;55.654;37.592;2023-11-18T02:45:25;13.95;;;3.20;;
35442;SDS011;21561;55.654;37.592;2023-11-18T02:47:53;11.85;;;3.10;;
35442;SDS011;21561;55.654;37.592;2023-11-18T02:50:27;14.77;;;3.22;;
35442;SDS011;21561;55.654;37.592;2023-11-18T02:52:54;12.75;;;3.30;;
35442;SDS011;21561;55.654;37.592;2023-11-18T02:55:21;13.82;;;3.63;;
35442;SDS011;21561;55.654;37.592;2023-11-18T02:57:49;16.40;;;3.60;;
35442;SDS011;21561;55.654;37.592;2023-11-18T03:00:18;16.38;;;3.10;;
35442;SDS011;21561;55.654;37.592;2023-11-18T03:02:48;13.57;;;3.00;;
35442;SDS011;21561;55.654;37.592;2023-11-18T03:05:17;12.23;;;2.78;;
35442;SDS011;21561;55.654;37.592;2023-11-18T03:07:45;11.90;;;2.70;;
35442;SDS011;21561;55.654;37.592;2023-11-18T03:10:16;12.70;;;3.07;;
35442;SDS011;21561;55.654;37.592;2023-11-18T03:12:50;12.70;;;2.90;;
35442;SDS011;21561;55.654;37.592;2023-11-18T03:15:20;13.80;;;3.08;;
35442;SDS011;21561;55.654;37.592;2023-11-18T03:17:48;11.10;;;2.92;;
35442;SDS011;21561;55.654;37.592;2023-11-18T03:20:17;12.60;;;3.30;;
35442;SDS011;21561;55.654;37.592;2023-11-18T03:22:46;13.82;;;2.92;;
35442;SDS011;21561;55.654;37.592;2023-11-18T03:25:14;12.88;;;3.22;;
35442;SDS011;21561;55.654;37.592;2023-11-18T03:27:42;12.95;;;3.20;;
35442;SDS011;21561;55.654;37.592;2023-11-18T03:30:11;14.90;;;3.47;;
35442;SDS011;21561;55.654;37.592;2023-11-18T03:32:39;15.48;;;3.67;;
35442;SDS011;21561;55.654;37.592;2023-11-18T03:35:09;11.55;;;2.90;;
35442;SDS011;21561;55.654;37.592;2023-11-18T03:37:39;11.73;;;3.10;;
35442;SDS011;21561;55.654;37.592;2023-11-18T03:40:12;11.40;;;3.20;;
35442;SDS011;21561;55.654;37.592;2023-11-18T03:45:08;17.83;;;3.63;;
35442;SDS011;21561;55.654;37.592;2023-11-18T03:47:40;13.55;;;3.38;;
35442;SDS011;21561;55.654;37.592;2023-11-18T03:50:07;13.50;;;3.50;;
35442;SDS011;21561;55.654;37.592;2023-11-18T03:52:40;14.90;;;3.63;;
35442;SDS011;21561;55.654;37.592;2023-11-18T03:55:11;16.10;;;3.83;;
35442;SDS011;21561;55.654;37.592;2023-11-18T03:57:39;12.23;;;3.47;;
35442;SDS011;21561;55.654;37.592;2023-11-18T04:00:06;16.27;;;3.72;;
35442;SDS011;21561;55.654;37.592;2023-11-18T04:02:33;13.50;;;3.85;;
35442;SDS011;21561;55.654;37.592;2023-11-18T04:05:02;13.95;;;3.15;;
35442;SDS011;21561;55.654;37.592;2023-11-18T04:07:31;17.77;;;4.03;;
35442;SDS011;21561;55.654;37.592;2023-11-18T04:09:58;13.10;;;3.80;;
35442;SDS011;21561;55.654;37.592;2023-11-18T04:12:27;15.45;;;3.75;;
35442;SDS011;21561;55.654;37.592;2023-11-18T04:14:56;14.13;;;3.80;;
35442;SDS011;21561;55.654;37.592;2023-11-18T04:17:23;16.73;;;4.28;;
35442;SDS011;21561;55.654;37.592;2023-11-18T04:19:54;16.92;;;4.30;;
35442;SDS011;21561;55.654;37.592;2023-11-18T04:22:24;16.83;;;3.80;;
35442;SDS011;21561;55.654;37.592;2023-11-18T04:24:51;14.13;;;3.95;;
35442;SDS011;21561;55.654;37.592;2023-11-18T04:27:18;14.82;;;4.05;;
35442;SDS011;21561;55.654;37.592;2023-11-18T04:29:45;16.13;;;4.20;;
35442;SDS011;21561;55.654;37.592;2023-11-18T04:32:13;16.20;;;3.75;;
35442;SDS011;21561;55.654;37.592;2023-11-18T04:34:40;15.10;;;4.10;;
35442;SDS011;21561;55.654;37.592;2023-11-18T04:37:09;17.00;;;4.00;;
35442;SDS011;21561;55.654;37.592;2023-11-18T04:39:36;12.75;;;3.63;;
35442;SDS011;21561;55.654;37.592;2023-11-18T04:42:03;15.05;;;4.07;;
35442;SDS011;21561;55.654;37.592;2023-11-18T04:44:30;19.65;;;4.07;;
35442;SDS011;21561;55.654;37.592;2023-11-18T04:46:58;14.38;;;4.15;;
35442;SDS011;21561;55.654;37.592;2023-11-18T04:49:26;15.80;;;4.45;;
35442;SDS011;21561;55.654;37.592;2023-11-18T04:51:53;13.45;;;3.55;;
35442;SDS011;21561;55.654;37.592;2023-11-18T04:54:20;15.15;;;3.80;;
35442;SDS011;21561;55.654;37.592;2023-11-18T04:56:47;15.35;;;3.70;;
35442;SDS011;21561;55.654;37.592;2023-11-18T04:59:14;15.77;;;4.10;;
35442;SDS011;21561;55.654;37.592;2023-11-18T05:01:41;20.30;;;4.65;;
35442;SDS011;21561;55.654;37.592;2023-11-18T05:04:09;20.20;;;4.35;;
35442;SDS011;21561;55.654;37.592;2023-11-18T05:06:36;16.55;;;4.45;;
35442;SDS011;21561;55.654;37.592;2023-11-18T05:09:03;16.25;;;4.05;;
35442;SDS011;21561;55.654;37.592;2023-11-18T05:11:34;16.60;;;4.37;;
35442;SDS011;21561;55.654;37.592;2023-11-18T05:14:02;17.33;;;4.47;;
35442;SDS011;21561;55.654;37.592;2023-11-18T05:16:30;18.95;;;4.57;;
35442;SDS011;21561;55.654;37.592;2023-11-18T05:18:57;15.32;;;4.22;;
35442;SDS011;21561;55.654;37.592;2023-11-18T05:21:24;23.52;;;5.13;;
35442;SDS011;21561;55.654;37.592;2023-11-18T05:23:50;18.30;;;5.00;;
35442;SDS011;21561;55.654;37.592;2023-11-18T05:26:17;14.43;;;4.18;;
35442;SDS011;21561;55.654;37.592;2023-11-18T05:28:44;17.10;;;4.75;;
35442;SDS011;21561;55.654;37.592;2023-11-18T05:31:11;20.65;;;5.72;;
35442;SDS011;21561;55.654;37.592;2023-11-18T05:33:38;16.33;;;3.95;;
35442;SDS011;21561;55.654;37.592;2023-11-18T05:36:05;16.48;;;3.97;;
35442;SDS011;21561;55.654;37.592;2023-11-18T05:38:33;17.52;;;4.10;;
35442;SDS011;21561;55.654;37.592;2023-11-18T05:41:01;15.88;;;4.30;;
35442;SDS011;21561;55.654;37.592;2023-11-18T05:43:31;13.07;;;3.83;;
35442;SDS011;21561;55.654;37.592;2023-11-18T05:46:07;13.65;;;4.00;;
35442;SDS011;21561;55.654;37.592;2023-11-18T05:48:48;19.98;;;3.90;;
35442;SDS011;21561;55.654;37.592;2023-11-18T05:51:19;14.18;;;3.83;;
35442;SDS011;21561;55.654;37.592;2023-11-18T05:53:48;16.77;;;3.72;;
35442;SDS011;21561;55.654;37.592;2023-11-18T05:56:16;13.50;;;3.53;;
35442;SDS011;21561;55.654;37.592;2023-11-18T05:58:43;13.80;;;3.67;;
35442;SDS011;21561;55.654;37.592;2023-11-18T06:01:12;13.70;;;3.30;;
35442;SDS011;21561;55.654;37.592;2023-11-18T06:03:41;14.20;;;3.55;;
35442;SDS011;21561;55.654;37.592;2023-11-18T06:06:09;13.73;;;3.65;;
35442;SDS011;21561;55.654;37.592;2023-11-18T06:08:38;14.23;;;3.47;;
35442;SDS011;21561;55.654;37.592;2023-11-18T06:11:09;13.80;;;4.05;;
35442;SDS011;21561;55.654;37.592;2023-11-18T06:16:18;13.65;;;3.60;;
35442;SDS011;21561;55.654;37.592;2023-11-18T06:18:55;14.18;;;3.78;;
35442;SDS011;21561;55.654;37.592;2023-11-18T06:21:24;14.52;;;3.60;;
35442;SDS011;21561;55.654;37.592;2023-11-18T06:23:55;12.45;;;3.58;;
35442;SDS011;21561;55.654;37.592;2023-11-18T06:26:23;17.10;;;3.60;;
35442;SDS011;21561;55.654;37.592;2023-11-18T06:28:54;14.80;;;3.88;;
35442;SDS011;21561;55.654;37.592;2023-11-18T06:31:22;14.35;;;5.68;;
35442;SDS011;21561;55.654;37.592;2023-11-18T06:33:51;14.57;;;3.70;;
35442;SDS011;21561;55.654;37.592;2023-11-18T06:36:19;16.63;;;4.22;;
35442;SDS011;21561;55.654;37.592;2023-11-18T06:38:51;15.15;;;4.15;;
35442;SDS011;21561;55.654;37.592;2023-11-18T06:41:20;15.32;;;4.45;;
35442;SDS011;21561;55.654;37.592;2023-11-18T06:43:51;14.82;;;4.07;;
35442;SDS011;21561;55.654;37.592;2023-11-18T06:46:19;18.80;;;4.53;;
35442;SDS011;21561;55.654;37.592;2023-11-18T06:48:49;17.98;;;3.53;;
35442;SDS011;21561;55.654;37.592;2023-11-18T06:51:17;13.77;;;3.83;;
35442;SDS011;21561;55.654;37.592;2023-11-18T06:53:44;15.45;;;4.55;;
35442;SDS011;21561;55.654;37.592;2023-11-18T06:56:11;11.93;;;3.25;;
35442;SDS011;21561;55.654;37.592;2023-11-18T06:58:38;13.85;;;3.83;;
35442;SDS011;21561;55.654;37.592;2023-11-18T07:01:07;11.38;;;3.30;;
35442;SDS011;21561;55.654;37.592;2023-11-18T07:03:35;12.98;;;3.60;;
35442;SDS011;21561;55.654;37.592;2023-11-18T07:06:03;12.13;;;3.10;;
35442;SDS011;21561;55.654;37.592;2023-11-18T07:08:32;18.85;;;3.67;;
35442;SDS011;21561;55.654;37.592;2023-11-18T07:11:01;12.90;;;3.28;;
35442;SDS011;21561;55.654;37.592;2023-11-18T07:13:29;16.90;;;3.53;;
35442;SDS011;21561;55.654;37.592;2023-11-18T07:15:56;18.08;;;4.90;;
35442;SDS011;21561;55.654;37.592;2023-11-18T07:18:24;12.80;;;3.13;;
35442;SDS011;21561;55.654;37.592;2023-11-18T07:20:51;18.48;;;3.72;;
35442;SDS011;21561;55.654;37.592;2023-11-18T07:23:19;15.25;;;3.53;;
35442;SDS011;21561;55.654;37.592;2023-11-18T07:25:46;23.75;;;4.22;;
35442;SDS011;21561;55.654;37.592;2023-11-18T07:28:13;23.52;;;4.13;;
35442;SDS011;21561;55.654;37.592;2023-11-18T07:30:44;28.33;;;4.70;;
35442;SDS011;21561;55.654;37.592;2023-11-18T07:33:16;13.98;;;3.97;;
35442;SDS011;21561;55.654;37.592;2023-11-18T07:35:48;19.10;;;4.38;;
35442;SDS011;21561;55.654;37.592;2023-11-18T07:38:15;20.27;;;4.50;;
35442;SDS011;21561;55.654;37.592;2023-11-18T07:40:43;15.95;;;3.90;;
35442;SDS011;21561;55.654;37.592;2023-11-18T07:43:13;15.80;;;3.83;;
35442;SDS011;21561;55.654;37.592;2023-11-18T07:45:40;19.30;;;4.05;;
35442;SDS011;21561;55.654;37.592;2023-11-18T07:48:09;16.55;;;3.53;;
35442;SDS011;21561;55.654;37.592;2023-11-18T07:50:39;15.35;;;3.95;;
35442;SDS011;21561;55.654;37.592;2023-11-18T07:53:07;14.20;;;3.85;;
35442;SDS011;21561;55.654;37.592;2023-11-18T07:55:34;12.70;;;3.38;;
35442;SDS011;21561;55.654;37.592;2023-11-18T07:58:06;12.60;;;3.65;;
35442;SDS011;21561;55.654;37.592;2023-11-18T08:03:05;13.63;;;2.88;;
35442;SDS011;21561;55.654;37.592;2023-11-18T08:05:43;14.73;;;3.67;;
35442;SDS011;21561;55.654;37.592;2023-11-18T08:08:12;18.25;;;3.72;;
35442;SDS011;21561;55.654;37.592;2023-11-18T08:10:40;19.63;;;3.78;;
35442;SDS011;21561;55.654;37.592;2023-11-18T08:13:09;15.77;;;3.50;;
35442;SDS011;21561;55.654;37.592;2023-11-18T08:15:38;18.75;;;3.47;;
35442;SDS011;21561;55.654;37.592;2023-11-18T08:18:09;14.95;;;3.50;;
35442;SDS011;21561;55.654;37.592;2023-11-18T08:20:39;14.43;;;3.55;;
35442;SDS011;21561;55.654;37.592;2023-11-18T08:23:07;16.45;;;3.45;;
35442;SDS011;21561;55.654;37.592;2023-11-18T08:25:34;12.82;;;3.35;;
35442;SDS011;21561;55.654;37.592;2023-11-18T08:28:03;23.73;;;3.42;;
35442;SDS011;21561;55.654;37.592;2023-11-18T08:30:31;14.30;;;3.22;;
35442;SDS011;21561;55.654;37.592;2023-11-18T08:33:00;15.43;;;3.05;;
35442;SDS011;21561;55.654;37.592;2023-11-18T08:35:32;12.35;;;2.92;;
35442;SDS011;21561;55.654;37.592;2023-11-18T08:37:59;11.85;;;2.70;;
35442;SDS011;21561;55.654;37.592;2023-11-18T08:40:28;14.95;;;3.20;;
35442;SDS011;21561;55.654;37.592;2023-11-18T08:42:55;11.25;;;2.70;;
35442;SDS011;21561;55.654;37.592;2023-11-18T08:45:23;9.77;;;2.20;;
35442;SDS011;21561;55.654;37.592;2023-11-18T08:47:56;11.25;;;2.55;;
35442;SDS011;21561;55.654;37.592;2023-11-18T08:50:25;11.77;;;2.60;;
35442;SDS011;21561;55.654;37.592;2023-11-18T08:52:53;12.50;;;2.67;;
35442;SDS011;21561;55.654;37.592;2023-11-18T08:55:28;14.48;;;2.70;;
35442;SDS011;21561;55.654;37.592;2023-11-18T08:58:08;12.55;;;2.70;;
35442;SDS011;21561;55.654;37.592;2023-11-18T09:00:49;11.50;;;2.97;;
35442;SDS011;21561;55.654;37.592;2023-11-18T09:03:25;12.15;;;2.83;;
35442;SDS011;21561;55.654;37.592;2023-11-18T09:08:35;15.77;;;3.30;;
35442;SDS011;21561;55.654;37.592;2023-11-18T09:11:06;16.17;;;3.33;;
35442;SDS011;21561;55.654;37.592;2023-11-18T09:13:34;11.95;;;3.60;;
35442;SDS011;21561;55.654;37.592;2023-11-18T09:16:03;11.18;;;3.53;;
35442;SDS011;21561;55.654;37.592;2023-11-18T09:18:37;20.52;;;3.40;;
35442;SDS011;21561;55.654;37.592;2023-11-18T09:21:09;16.33;;;3.72;;
35442;SDS011;21561;55.654;37.592;2023-11-18T09:23:42;12.02;;;2.90;;
35442;SDS011;21561;55.654;37.592;2023-11-18T09:26:09;13.43;;;2.65;;
35442;SDS011;21561;55.654;37.592;2023-11-18T09:28:37;10.93;;;3.13;;
35442;SDS011;21561;55.654;37.592;2023-11-18T09:31:05;15.13;;;3.67;;
35442;SDS011;21561;55.654;37.592;2023-11-18T09:33:38;14.18;;;3.40;;
35442;SDS011;21561;55.654;37.592;2023-11-18T09:36:11;12.85;;;3.33;;
35442;SDS011;21561;55.654;37.592;2023-11-18T09:38:40;11.65;;;2.75;;
35442;SDS011;21561;55.654;37.592;2023-11-18T09:41:09;13.85;;;2.80;;
35442;SDS011;21561;55.654;37.592;2023-11-18T09:43:41;12.20;;;3.00;;
35442;SDS011;21561;55.654;37.592;2023-11-18T09:48:48;13.23;;;2.63;;
35442;SDS011;21561;55.654;37.592;2023-11-18T09:51:27;11.32;;;2.40;;
35442;SDS011;21561;55.654;37.592;2023-11-18T09:54:00;8.13;;;2.30;;
35442;SDS011;21561;55.654;37.592;2023-11-18T09:56:45;9.45;;;2.55;;
35442;SDS011;21561;55.654;37.592;2023-11-18T10:02:11;12.77;;;2.58;;
35442;SDS011;21561;55.654;37.592;2023-11-18T10:04:39;10.40;;;2.42;;
35442;SDS011;21561;55.654;37.592;2023-11-18T10:07:06;11.32;;;3.20;;
35442;SDS011;21561;55.654;37.592;2023-11-18T10:09:36;12.18;;;2.75;;
35442;SDS011;21561;55.654;37.592;2023-11-18T10:12:08;18.05;;;3.40;;
35442;SDS011;21561;55.654;37.592;2023-11-18T10:14:41;14.27;;;2.70;;
35442;SDS011;21561;55.654;37.592;2023-11-18T10:17:10;17.15;;;3.33;;
35442;SDS011;21561;55.654;37.592;2023-11-18T10:19:56;20.45;;;3.45;;
35442;SDS011;21561;55.654;37.592;2023-11-18T10:22:35;14.10;;;3.03;;
35442;SDS011;21561;55.654;37.592;2023-11-18T10:25:02;13.13;;;3.28;;
35442;SDS011;21561;55.654;37.592;2023-11-18T10:27:32;13.02;;;3.28;;
35442;SDS011;21561;55.654;37.592;2023-11-18T10:30:01;17.70;;;3.78;;
35442;SDS011;21561;55.654;37.592;2023-11-18T10:32:33;16.83;;;3.65;;
35442;SDS011;21561;55.654;37.592;2023-11-18T10:35:03;15.13;;;3.00;;
35442;SDS011;21561;55.654;37.592;2023-11-18T10:37:36;14.45;;;2.85;;
35442;SDS011;21561;55.654;37.592;2023-11-18T10:40:10;11.35;;;3.35;;
35442;SDS011;21561;55.654;37.592;2023-11-18T10:42:40;8.57;;;2.22;;
35442;SDS011;21561;55.654;37.592;2023-11-18T10:45:09;10.15;;;2.25;;
35442;SDS011;21561;55.654;37.592;2023-11-18T10:47:42;13.45;;;3.10;;
35442;SDS011;21561;55.654;37.592;2023-11-18T10:50:09;13.88;;;2.90;;
35442;SDS011;21561;55.654;37.592;2023-11-18T10:52:37;15.95;;;3.63;;
35442;SDS011;21561;55.654;37.592;2023-11-18T10:55:08;23.40;;;3.55;;
35442;SDS011;21561;55.654;37.592;2023-11-18T10:57:40;16.98;;;3.65;;
35442;SDS011;21561;55.654;37.592;2023-11-18T11:00:09;18.00;;;3.88;;
35442;SDS011;21561;55.654;37.592;2023-11-18T11:02:40;12.20;;;3.10;;
35442;SDS011;21561;55.654;37.592;2023-11-18T11:05:08;15.02;;;3.20;;
35442;SDS011;21561;55.654;37.592;2023-11-18T11:07:47;11.95;;;3.42;;
35442;SDS011;21561;55.654;37.592;2023-11-18T11:10:16;14.57;;;2.78;;
35442;SDS011;21561;55.654;37.592;2023-11-18T11:12:47;13.07;;;3.08;;
35442;SDS011;21561;55.654;37.592;2023-11-18T11:15:22;14.57;;;3.53;;
35442;SDS011;21561;55.654;37.592;2023-11-18T11:17:56;12.15;;;3.08;;
35442;SDS011;21561;55.654;37.592;2023-11-18T11:20:42;14.82;;;2.95;;
35442;SDS011;21561;55.654;37.592;2023-11-18T11:23:27;14.05;;;3.20;;
35442;SDS011;21561;55.654;37.592;2023-11-18T11:29:00;13.55;;;3.03;;
35442;SDS011;21561;55.654;37.592;2023-11-18T11:31:39;17.38;;;3.45;;
35442;SDS011;21561;55.654;37.592;2023-11-18T11:34:17;18.48;;;4.43;;
35442;SDS011;21561;55.654;37.592;2023-11-18T11:36:47;19.42;;;3.40;;
35442;SDS011;21561;55.654;37.592;2023-11-18T11:39:18;23.60;;;4.32;;
35442;SDS011;21561;55.654;37.592;2023-11-18T11:41:53;13.10;;;2.85;;
35442;SDS011;21561;55.654;37.592;2023-11-18T11:44:24;12.48;;;3.05;;
35442;SDS011;21561;55.654;37.592;2023-11-18T11:46:57;17.63;;;3.42;;
35442;SDS011;21561;55.654;37.592;2023-11-18T11:49:29;15.50;;;3.67;;
35442;SDS011;21561;55.654;37.592;2023-11-18T11:52:32;16.30;;;3.58;;
35442;SDS011;21561;55.654;37.592;2023-11-18T11:55:09;20.60;;;3.30;;
35442;SDS011;21561;55.654;37.592;2023-11-18T11:57:40;17.75;;;3.35;;
35442;SDS011;21561;55.654;37.592;2023-11-18T12:00:09;17.10;;;3.58;;
35442;SDS011;21561;55.654;37.592;2023-11-18T12:02:53;11.73;;;2.95;;
35442;SDS011;21561;55.654;37.592;2023-11-18T12:05:25;14.05;;;3.30;;
35442;SDS011;21561;55.654;37.592;2023-11-18T12:07:54;18.40;;;3.42;;
35442;SDS011;21561;55.654;37.592;2023-11-18T12:10:31;14.23;;;2.90;;
35442;SDS011;21561;55.654;37.592;2023-11-18T12:13:11;15.93;;;3.13;;
35442;SDS011;21561;55.654;37.592;2023-11-18T12:15:50;16.17;;;3.05;;
35442;SDS011;21561;55.654;37.592;2023-11-18T12:18:21;14.60;;;3.10;;
35442;SDS011;21561;55.654;37.592;2023-11-18T12:20:50;13.48;;;3.30;;
35442;SDS011;21561;55.654;37.592;2023-11-18T12:23:28;14.57;;;2.90;;
35442;SDS011;21561;55.654;37.592;2023-11-18T12:25:57;11.38;;;3.10;;
35442;SDS011;21561;55.654;37.592;2023-11-18T12:28:30;11.65;;;2.78;;
35442;SDS011;21561;55.654;37.592;2023-11-18T12:31:02;12.15;;;3.10;;
35442;SDS011;21561;55.654;37.592;2023-11-18T12:44:29;18.40;;;3.55;;
35442;SDS011;21561;55.654;37.592;2023-11-18T12:47:02;20.63;;;5.38;;
35442;SDS011;21561;55.654;37.592;2023-11-18T12:49:41;13.77;;;4.10;;
35442;SDS011;21561;55.654;37.592;2023-11-18T12:52:09;13.57;;;3.90;;
35442;SDS011;21561;55.654;37.592;2023-11-18T12:54:39;14.57;;;4.00;;
35442;SDS011;21561;55.654;37.592;2023-11-18T12:57:10;15.07;;;3.90;;
35442;SDS011;21561;55.654;37.592;2023-11-18T12:59:41;13.18;;;3.35;;
35442;SDS011;21561;55.654;37.592;2023-11-18T13:02:09;12.13;;;4.13;;
35442;SDS011;21561;55.654;37.592;2023-11-18T13:04:48;18.50;;;3.85;;
35442;SDS011;21561;55.654;37.592;2023-11-18T13:07:17;17.10;;;4.38;;
35442;SDS011;21561;55.654;37.592;2023-11-18T13:09:45;19.50;;;4.30;;
35442;SDS011;21561;55.654;37.592;2023-11-18T13:12:13;14.43;;;4.00;;
35442;SDS011;21561;55.654;37.592;2023-11-18T13:14:46;15.27;;;3.95;;
35442;SDS011;21561;55.654;37.592;2023-11-18T13:17:15;17.52;;;4.13;;
35442;SDS011;21561;55.654;37.592;2023-11-18T13:19:43;18.05;;;5.00;;
35442;SDS011;21561;55.654;37.592;2023-11-18T13:22:13;16.50;;;5.28;;
35442;SDS011;21561;55.654;37.592;2023-11-18T13:24:41;18.52;;;5.80;;
35442;SDS011;21561;55.654;37.592;2023-11-18T13:27:13;20.42;;;5.50;;
35442;SDS011;21561;55.654;37.592;2023-11-18T13:29:49;18.23;;;5.65;;
35442;SDS011;21561;55.654;37.592;2023-11-18T13:32:17;20.67;;;5.70;;
35442;SDS011;21561;55.654;37.592;2023-11-18T13:34:49;25.23;;;7.20;;
35442;SDS011;21561;55.654;37.592;2023-11-18T13:37:18;18.55;;;5.43;;
35442;SDS011;21561;55.654;37.592;2023-11-18T13:39:53;16.77;;;5.05;;
35442;SDS011;21561;55.654;37.592;2023-11-18T13:42:25;20.10;;;5.85;;
35442;SDS011;21561;55.654;37.592;2023-11-18T13:45:03;18.42;;;5.53;;
35442;SDS011;21561;55.654;37.592;2023-11-18T13:47:35;17.13;;;5.95;;
35442;SDS011;21561;55.654;37.592;2023-11-18T13:50:06;23.88;;;6.03;;
35442;SDS011;21561;55.654;37.592;2023-11-18T13:55:05;22.02;;;5.60;;
35442;SDS011;21561;55.654;37.592;2023-11-18T13:57:33;21.75;;;5.93;;
35442;SDS011;21561;55.654;37.592;2023-11-18T14:00:01;23.90;;;6.10;;
35442;SDS011;21561;55.654;37.592;2023-11-18T14:02:32;21.63;;;5.40;;
35442;SDS011;21561;55.654;37.592;2023-11-18T14:05:00;20.02;;;6.95;;
35442;SDS011;21561;55.654;37.592;2023-11-18T14:07:27;22.02;;;5.43;;
35442;SDS011;21561;55.654;37.592;2023-11-18T14:09:54;24.70;;;6.03;;
35442;SDS011;21561;55.654;37.592;2023-11-18T14:12:23;23.38;;;5.72;;
35442;SDS011;21561;55.654;37.592;2023-11-18T14:14:54;23.00;;;6.17;;
35442;SDS011;21561;55.654;37.592;2023-11-18T14:17:21;15.73;;;5.65;;
35442;SDS011;21561;55.654;37.592;2023-11-18T14:19:48;18.13;;;6.25;;
35442;SDS011;21561;55.654;37.592;2023-11-18T14:22:17;19.08;;;5.47;;
35442;SDS011;21561;55.654;37.592;2023-11-18T14:24:44;26.80;;;6.13;;
35442;SDS011;21561;55.654;37.592;2023-11-18T14:27:11;17.73;;;6.07;;
35442;SDS011;21561;55.654;37.592;2023-11-18T14:29:40;18.40;;;5.95;;
35442;SDS011;21561;55.654;37.592;2023-11-18T14:32:06;20.52;;;6.72;;
35442;SDS011;21561;55.654;37.592;2023-11-18T14:34:34;19.48;;;6.00;;
35442;SDS011;21561;55.654;37.592;2023-11-18T14:37:01;18.05;;;6.22;;
35442;SDS011;21561;55.654;37.592;2023-11-18T14:39:27;23.20;;;6.50;;
35442;SDS011;21561;55.654;37.592;2023-11-18T14:41:56;19.88;;;6.43;;
35442;SDS011;21561;55.654;37.592;2023-11-18T14:44:22;18.73;;;6.53;;
35442;SDS011;21561;55.654;37.592;2023-11-18T14:46:50;24.05;;;5.95;;
35442;SDS011;21561;55.654;37.592;2023-11-18T14:49:18;21.52;;;5.80;;
35442;SDS011;21561;55.654;37.592;2023-11-18T14:51:44;24.75;;;6.60;;
35442;SDS011;21561;55.654;37.592;2023-11-18T14:54:12;17.25;;;5.43;;
35442;SDS011;21561;55.654;37.592;2023-11-18T14:56:39;18.30;;;5.80;;
35442;SDS011;21561;55.654;37.592;2023-11-18T14:59:05;24.90;;;6.68;;
35442;SDS011;21561;55.654;37.592;2023-11-18T15:01:34;19.17;;;6.30;;
35442;SDS011;21561;55.654;37.592;2023-11-18T15:04:02;18.10;;;6.05;;
35442;SDS011;21561;55.654;37.592;2023-11-18T15:06:32;19.63;;;6.18;;
35442;SDS011;21561;55.654;37.592;2023-11-18T15:08:59;21.50;;;6.00;;
35442;SDS011;21561;55.654;37.592;2023-11-18T15:11:29;21.27;;;5.70;;
35442;SDS011;21561;55.654;37.592;2023-11-18T15:14:05;20.73;;;5.15;;
35442;SDS011;21561;55.654;37.592;2023-11-18T15:16:34;17.48;;;5.75;;